Barbeau, Michigan
Current Conditions -  °F | °C
As of 12:55 PM on Saturday 22 Nov 2014 (Local Time) from KCIU Reporting Station
Overcast Overcast  
Wind Chill: 27°   Ceiling: 1100
Heat Index: 37°   Visibility: 7mi
Dew Point: 34°   Wind: 20mph
Humidity: 87%   Direction: 250°WSW
Pressure: 29.73"   Gusts: NA
Location:  46.29°N, 84.28°W
Report Text: KCIU 221755Z AUTO 25017KT 7SM OVC011 03/01 A2973 RMK AO1 10030 20020 57014
Loading
Personal Weather Stations






























Interactive Weather Map New forecast layout! Learn more

10-Day Weather Forecast

Advertisements
Track Severe Weather on mobile